Terminal Aerodrome Forecast
Issued by NWS Charleston, SC

Home | Current Version | Previous Version | Text Only | Print | Product List | Glossary On
Versions: 1 2 3 4 5 6 7 8 9 10 11 12
000
FTUS42 KCHS 040524
TAFCHS
TAF
KCHS 040524Z 0406/0506 VRB03KT P6SM FEW035 BKN250
     FM041800 14007KT P6SM SCT050 SCT250
     FM050000 17003KT P6SM SCT040 SCT250=

USA.gov is the U.S. government's official web portal to all federal, state and local government web resources and services.